createdAt,value
2019-02-21T00:02:24.008Z,102184.83
2019-02-21T00:04:51.336Z,102190.50
2019-02-21T00:07:18.613Z,102187.03
2019-02-21T00:09:46.322Z,102186.16
2019-02-21T00:12:14.681Z,102185.72
2019-02-21T00:14:42.077Z,102182.66
2019-02-21T00:17:09.378Z,102177.39
2019-02-21T00:19:37.152Z,102150.67
2019-02-21T00:22:04.408Z,102170.42
2019-02-21T00:24:31.767Z,102160.77
2019-02-21T00:26:59.005Z,102165.62
2019-02-21T00:29:26.241Z,102176.09
2019-02-21T00:31:53.700Z,102180.91
2019-02-21T00:34:20.929Z,102181.34
2019-02-21T00:36:48.194Z,102176.54
2019-02-21T00:39:15.399Z,102174.34
2019-02-21T00:41:42.711Z,102180.92
2019-02-21T00:44:09.920Z,102177.41
2019-02-21T00:46:37.306Z,102174.34
2019-02-21T00:49:04.844Z,102179.17
2019-02-21T00:51:32.063Z,102174.78
2019-02-21T00:53:59.267Z,102176.13
2019-02-21T00:56:26.665Z,102178.77
2019-02-21T00:58:53.982Z,102184.03
2019-02-21T01:01:21.281Z,102177.00
2019-02-21T01:03:48.662Z,102179.67
2019-02-21T01:06:16.015Z,102173.99
2019-02-21T01:08:43.487Z,102177.05
2019-02-21T01:11:10.795Z,102165.64
2019-02-21T01:13:38.245Z,102176.16
2019-02-21T01:16:05.658Z,102185.82
2019-02-21T01:18:32.813Z,102186.26
2019-02-21T01:21:00.026Z,102183.62
2019-02-21T01:23:27.228Z,102184.04
2019-02-21T01:25:54.374Z,102186.67
2019-02-21T01:28:21.611Z,102190.19
2019-02-21T01:30:56.725Z,102184.94
2019-02-21T01:33:17.850Z,102185.82
2019-02-21T01:35:45.072Z,102186.25
2019-02-21T01:38:12.245Z,102190.20
2019-02-21T01:40:39.467Z,102184.95
2019-02-21T01:43:06.739Z,102189.78
2019-02-21T01:45:33.979Z,102184.95
2019-02-21T01:48:01.150Z,102182.30
2019-02-21T01:50:28.366Z,102177.48
2019-02-21T01:52:55.577Z,102179.68
2019-02-21T01:55:22.789Z,102185.83
2019-02-21T01:57:49.960Z,102178.37
2019-02-21T02:00:17.161Z,102179.27
2019-02-21T02:02:44.356Z,102178.84
2019-02-21T02:05:11.633Z,102170.95
2019-02-21T02:07:38.823Z,102172.71
2019-02-21T02:10:06.970Z,102175.33
2019-02-21T02:12:34.154Z,102177.95
2019-02-21T02:15:01.399Z,102170.49
2019-02-21T02:17:28.651Z,102162.19
2019-02-21T02:19:55.823Z,102160.88
2019-02-21T02:22:23.012Z,102163.96
2019-02-21T02:24:50.258Z,102167.91
2019-02-21T02:27:17.436Z,102172.71
2019-02-21T02:29:44.686Z,102179.75
2019-02-21T02:32:11.900Z,102170.98
2019-02-21T02:34:39.075Z,102176.70
2019-02-21T02:37:06.312Z,102171.44
2019-02-21T02:39:33.497Z,102168.34
2019-02-21T02:42:00.767Z,102173.65
2019-02-21T02:44:27.976Z,102171.88
2019-02-21T02:46:55.173Z,102169.70
2019-02-21T02:49:22.343Z,102177.12
2019-02-21T02:51:49.538Z,102177.59
2019-02-21T02:54:16.729Z,102177.12
2019-02-21T02:56:43.905Z,102175.38
2019-02-21T02:59:11.083Z,102176.70
2019-02-21T03:01:38.278Z,102173.65
2019-02-21T03:04:05.477Z,102173.19
2019-02-21T03:06:32.724Z,102174.49
2019-02-21T03:08:59.907Z,102174.06
2019-02-21T03:11:27.133Z,102173.60
2019-02-21T03:13:54.351Z,102178.44
2019-02-21T03:16:21.610Z,102186.79
2019-02-21T03:18:48.797Z,102179.75
2019-02-21T03:21:16.007Z,102181.53
2019-02-21T03:23:43.398Z,102183.27
2019-02-21T03:26:10.759Z,102179.32
2019-02-21T03:28:38.050Z,102183.27
2019-02-21T03:31:05.285Z,102187.21
2019-02-21T03:33:32.492Z,102192.48
2019-02-21T03:35:59.648Z,102188.53
2019-02-21T03:38:26.931Z,102192.00
2019-02-21T03:40:54.105Z,102189.37
2019-02-21T03:43:21.279Z,102182.39
2019-02-21T03:45:48.559Z,102191.16
2019-02-21T03:48:15.864Z,102187.64
2019-02-21T03:50:43.175Z,102189.84
2019-02-21T03:53:10.358Z,102181.55
2019-02-21T03:55:37.699Z,102188.53
2019-02-21T03:58:04.906Z,102181.08
2019-02-21T04:00:32.142Z,102176.71
2019-02-21T04:02:59.335Z,102169.72
2019-02-21T04:05:26.615Z,102170.14
2019-02-21T04:07:54.056Z,102168.81
2019-02-21T04:10:21.280Z,102165.31
2019-02-21T04:12:48.749Z,102168.41
2019-02-21T04:15:16.075Z,102167.98
2019-02-21T04:17:43.364Z,102165.80
2019-02-21T04:20:10.609Z,102162.26
2019-02-21T04:22:37.878Z,102157.00
2019-02-21T04:25:05.308Z,102165.78
2019-02-21T04:27:32.531Z,102162.30
2019-02-21T04:29:59.694Z,102158.78
2019-02-21T04:32:26.971Z,102164.03
2019-02-21T04:34:54.216Z,102173.20
2019-02-21T04:37:21.512Z,102173.19
2019-02-21T04:39:48.702Z,102179.33
2019-02-21T04:42:15.864Z,102172.75
2019-02-21T04:44:43.069Z,102178.02
2019-02-21T04:47:10.278Z,102167.52
2019-02-21T04:49:37.437Z,102173.66
2019-02-21T04:52:04.778Z,102177.13
2019-02-21T04:54:31.969Z,102171.86
2019-02-21T04:56:59.139Z,102174.48
2019-02-21T04:59:26.338Z,102172.71
2019-02-21T05:01:53.521Z,102173.18
2019-02-21T05:04:25.992Z,102175.38
2019-02-21T05:06:53.498Z,102173.18
2019-02-21T05:09:23.107Z,102171.45
2019-02-21T05:11:51.090Z,102178.08
2019-02-21T05:14:18.383Z,102173.67
2019-02-21T05:16:45.723Z,102178.08
2019-02-21T05:19:12.880Z,102177.18
2019-02-21T05:21:40.193Z,102169.30
2019-02-21T05:24:07.500Z,102172.77
2019-02-21T05:26:41.929Z,102167.94
2019-02-21T05:29:11.160Z,102167.08
2019-02-21T05:31:58.092Z,102165.78
2019-02-21T05:34:56.854Z,102166.20
2019-02-21T05:37:44.838Z,102163.56
2019-02-21T05:40:34.633Z,102160.51
2019-02-21T05:43:23.638Z,102162.67
2019-02-21T05:46:27.280Z,102154.78
2019-02-21T05:49:03.889Z,102149.10
2019-02-21T05:51:39.837Z,102153.48
2019-02-21T05:54:26.648Z,102145.16
2019-02-21T05:57:16.451Z,102143.42
2019-02-21T06:00:12.219Z,102146.89
2019-02-21T06:02:57.648Z,102149.99
2019-02-21T06:05:53.350Z,102154.38
2019-02-21T06:08:45.955Z,102148.69
2019-02-21T06:11:35.446Z,102147.38
2019-02-21T06:14:31.303Z,102149.55
2019-02-21T06:17:07.554Z,102146.06
2019-02-21T06:19:49.815Z,102152.21
2019-02-21T06:22:38.482Z,102152.22
2019-02-21T06:25:17.656Z,102164.94
2019-02-21T06:28:04.524Z,102165.37
2019-02-21T06:30:38.393Z,102165.83
2019-02-21T06:33:05.751Z,102163.16
2019-02-21T06:35:33.204Z,102172.36
2019-02-21T06:38:00.482Z,102171.05
2019-02-21T06:40:27.702Z,102175.87
2019-02-21T06:42:55.051Z,102174.12
2019-02-21T06:45:22.346Z,102178.03
2019-02-21T06:47:50.146Z,102181.54
2019-02-21T06:50:26.399Z,102186.33
2019-02-21T06:52:46.821Z,102193.36
2019-02-21T06:55:16.045Z,102197.72
2019-02-21T06:57:43.384Z,102207.34
2019-02-21T07:00:10.648Z,102204.70
2019-02-21T07:02:38.054Z,102207.76
2019-02-21T07:05:05.385Z,102211.23
2019-02-21T07:07:32.680Z,102217.80
2019-02-21T07:10:00.286Z,102220.00
2019-02-21T07:12:27.624Z,102225.25
2019-02-21T07:14:54.950Z,102212.54
2019-02-21T07:17:22.115Z,102212.55
2019-02-21T07:19:49.353Z,102199.00
2019-02-21T07:22:18.115Z,102195.52
2019-02-21T07:24:47.705Z,102198.52
2019-02-21T07:27:14.949Z,102196.77
2019-02-21T07:29:42.563Z,102204.23
2019-02-21T07:32:09.906Z,102206.45
2019-02-21T07:34:37.120Z,102215.23
2019-02-21T07:37:04.480Z,102225.73
2019-02-21T07:39:36.057Z,102224.00
2019-02-21T07:42:00.760Z,102230.16
2019-02-21T07:44:27.973Z,102237.16
2019-02-21T07:46:55.190Z,102230.58
2019-02-21T07:49:22.425Z,102232.74
2019-02-21T07:51:49.652Z,102233.20
2019-02-21T07:54:16.833Z,102250.23
2019-02-21T07:56:44.067Z,102251.98
2019-02-21T07:59:12.114Z,102259.44
2019-02-21T08:01:39.577Z,102252.02
2019-02-21T08:04:06.758Z,102253.33
2019-02-21T08:06:34.365Z,102263.80
2019-02-21T08:09:01.609Z,102269.95
2019-02-21T08:11:28.836Z,102271.73
2019-02-21T08:13:56.630Z,102273.47
2019-02-21T08:16:23.846Z,102267.33
2019-02-21T08:18:51.068Z,102266.89
2019-02-21T08:21:19.146Z,102270.84
2019-02-21T08:23:50.630Z,102276.95
2019-02-21T08:26:15.524Z,102285.30
2019-02-21T08:28:42.728Z,102290.13
2019-02-21T08:31:09.919Z,102286.62
2019-02-21T08:33:59.582Z,102292.77
2019-02-21T08:36:26.907Z,102298.91
2019-02-21T08:38:54.078Z,102301.11
2019-02-21T08:41:21.299Z,102297.17
2019-02-21T08:43:48.533Z,102287.97
2019-02-21T08:46:18.213Z,102288.82
2019-02-21T08:48:47.642Z,102285.77
2019-02-21T08:51:14.043Z,102266.48
2019-02-21T08:53:41.235Z,102262.53
2019-02-21T08:56:08.562Z,102265.16
2019-02-21T08:58:35.793Z,102263.84
2019-02-21T09:01:03.201Z,102268.20
2019-02-21T09:03:30.545Z,102264.27
2019-02-21T09:05:57.728Z,102262.05
2019-02-21T09:08:33.215Z,102263.80
2019-02-21T09:10:54.172Z,102268.16
2019-02-21T09:13:23.715Z,102272.05
2019-02-21T09:15:50.501Z,102265.94
2019-02-21T09:18:17.680Z,102268.98
2019-02-21T09:20:44.909Z,102272.06
2019-02-21T09:23:12.143Z,102266.80
2019-02-21T09:25:39.483Z,102273.80
2019-02-21T09:28:06.684Z,102277.27
2019-02-21T09:30:33.950Z,102269.78
2019-02-21T09:33:01.083Z,102273.73
2019-02-21T09:35:28.279Z,102269.38
2019-02-21T09:37:55.434Z,102270.27
2019-02-21T09:40:22.826Z,102264.13
2019-02-21T09:42:50.092Z,102264.59
2019-02-21T09:45:17.710Z,102254.50
2019-02-21T09:47:45.050Z,102253.19
2019-02-21T09:50:12.283Z,102261.92
2019-02-21T09:52:39.472Z,102278.11
2019-02-21T09:55:09.778Z,102278.57
2019-02-21T09:57:37.122Z,102288.67
2019-02-21T10:00:06.436Z,102280.38
2019-02-21T10:02:35.277Z,102285.16
2019-02-21T10:05:05.356Z,102274.21
2019-02-21T10:07:31.719Z,102288.67
2019-02-21T10:10:00.811Z,102294.37
2019-02-21T10:12:28.021Z,102305.77
2019-02-21T10:14:55.257Z,102307.09
2019-02-21T10:17:22.551Z,102304.03
2019-02-21T10:19:50.025Z,102298.73
2019-02-21T10:22:17.172Z,102304.87
2019-02-21T10:24:44.350Z,102304.87
2019-02-21T10:27:11.742Z,102306.14
2019-02-21T10:29:38.958Z,102313.59
2019-02-21T10:32:06.197Z,102303.08
2019-02-21T10:34:42.706Z,102302.19
2019-02-21T10:37:02.505Z,102296.45
2019-02-21T10:39:29.710Z,102303.48
2019-02-21T10:41:56.905Z,102299.55
2019-02-21T10:44:24.135Z,102305.66
2019-02-21T10:46:51.343Z,102312.70
2019-02-21T10:49:18.498Z,102310.96
2019-02-21T10:51:45.696Z,102310.97
2019-02-21T10:54:12.990Z,102318.44
2019-02-21T10:56:40.179Z,102319.75
2019-02-21T10:59:07.387Z,102318.02
2019-02-21T11:01:34.545Z,102324.59
2019-02-21T11:04:01.763Z,102320.18
2019-02-21T11:06:28.996Z,102320.17
2019-02-21T11:08:56.637Z,102321.92
2019-02-21T11:11:24.038Z,102317.12
2019-02-21T11:13:51.283Z,102314.91
2019-02-21T11:16:18.459Z,102321.02
2019-02-21T11:18:45.642Z,102315.34
2019-02-21T11:21:12.867Z,102315.81
2019-02-21T11:30:49.361Z,102306.62
2019-02-21T11:33:16.561Z,102311.94
2019-02-21T11:35:43.739Z,102313.25
2019-02-21T11:38:11.032Z,102309.73
2019-02-21T11:40:38.229Z,102304.51
2019-02-21T11:43:05.427Z,102314.98
2019-02-21T11:45:32.627Z,102311.46
2019-02-21T11:47:59.943Z,102315.41
2019-02-21T11:50:27.160Z,102313.20
2019-02-21T11:52:54.366Z,102308.40
2019-02-21T11:55:22.172Z,102306.61
2019-02-21T11:57:49.477Z,102302.66
2019-02-21T12:00:19.115Z,102311.44
2019-02-21T12:02:46.539Z,102310.56
2019-02-21T12:05:17.487Z,102311.03
2019-02-21T12:07:42.942Z,102312.77
2019-02-21T12:10:10.202Z,102310.14
2019-02-21T12:12:38.780Z,102307.51
2019-02-21T12:15:07.518Z,102314.55
2019-02-21T12:17:35.023Z,102307.52
2019-02-21T12:20:02.246Z,102307.52
2019-02-21T12:22:29.517Z,102314.51
2019-02-21T12:24:56.858Z,102316.24
2019-02-21T12:27:24.091Z,102314.50
2019-02-21T12:29:51.265Z,102318.91
2019-02-21T12:32:18.492Z,102325.02
2019-02-21T12:34:45.715Z,102316.24
2019-02-21T12:37:12.901Z,102320.19
2019-02-21T12:39:40.070Z,102321.97
2019-02-21T12:42:07.308Z,102323.29
2019-02-21T12:44:34.537Z,102322.87
2019-02-21T12:47:01.788Z,102324.17
2019-02-21T12:49:29.563Z,102323.30
2019-02-21T12:51:57.543Z,102328.13
2019-02-21T12:54:25.241Z,102325.50
2019-02-21T12:56:52.647Z,102330.77
2019-02-21T12:59:19.851Z,102329.91
2019-02-21T13:01:47.074Z,102325.55
2019-02-21T13:04:14.356Z,102330.80
2019-02-21T13:06:41.927Z,102329.48
2019-02-21T13:09:09.654Z,102326.37
2019-02-21T13:11:36.955Z,102322.42
2019-02-21T13:14:04.191Z,102319.83
2019-02-21T13:16:31.420Z,102318.52
2019-02-21T13:18:58.695Z,102321.58
2019-02-21T13:21:26.037Z,102318.95
2019-02-21T13:23:53.402Z,102313.71
2019-02-21T13:26:20.698Z,102311.91
2019-02-21T13:28:48.018Z,102315.45
2019-02-21T13:31:15.306Z,102318.51
2019-02-21T13:33:42.537Z,102316.31
2019-02-21T13:36:09.834Z,102314.14
2019-02-21T13:38:37.025Z,102317.20
2019-02-21T13:41:04.200Z,102327.68
2019-02-21T13:43:31.490Z,102323.77
2019-02-21T13:45:58.736Z,102334.72
2019-02-21T13:48:25.941Z,102334.30
2019-02-21T13:50:53.333Z,102340.45
2019-02-21T13:53:20.518Z,102340.88
2019-02-21T13:55:47.698Z,102340.45
2019-02-21T13:58:15.014Z,102348.33
2019-02-21T14:00:42.189Z,102350.50
2019-02-21T14:03:09.361Z,102347.02
2019-02-21T14:05:36.641Z,102347.02
2019-02-21T14:08:03.827Z,102344.40
2019-02-21T14:10:31.056Z,102342.23
2019-02-21T14:12:58.311Z,102343.08
2019-02-21T14:15:25.510Z,102336.93
2019-02-21T14:17:52.723Z,102329.94
2019-02-21T14:20:19.979Z,102339.98
2019-02-21T14:22:47.138Z,102336.94
2019-02-21T14:25:14.368Z,102336.50
2019-02-21T14:27:41.563Z,102338.70
2019-02-21T14:30:11.263Z,102332.98
2019-02-21T14:32:38.515Z,102339.56
2019-02-21T14:35:06.851Z,102334.77
2019-02-21T14:37:34.153Z,102333.45
2019-02-21T14:40:01.566Z,102340.45
2019-02-21T14:42:28.751Z,102337.82
2019-02-21T14:44:56.003Z,102343.08
2019-02-21T14:47:23.274Z,102343.97
2019-02-21T14:49:50.508Z,102347.02
2019-02-21T14:52:17.728Z,102346.14
2019-02-21T14:54:44.954Z,102347.48
2019-02-21T14:57:12.242Z,102355.37
2019-02-21T14:59:39.442Z,102355.37
2019-02-21T15:02:06.659Z,102364.11
2019-02-21T15:04:33.825Z,102365.42
2019-02-21T15:07:01.099Z,102365.00
2019-02-21T15:09:28.314Z,102364.58
2019-02-21T15:11:55.524Z,102372.89
2019-02-21T15:14:22.785Z,102379.50
2019-02-21T15:16:49.927Z,102374.23
2019-02-21T15:19:17.151Z,102377.30
2019-02-21T15:21:44.383Z,102387.38
2019-02-21T15:24:13.142Z,102380.35
2019-02-21T15:26:40.543Z,102379.92
2019-02-21T15:29:07.751Z,102386.95
2019-02-21T15:31:34.888Z,102391.33
2019-02-21T15:34:02.158Z,102387.81
2019-02-21T15:36:37.966Z,102392.64
2019-02-21T15:38:58.501Z,102401.41
2019-02-21T15:41:25.691Z,102396.58
2019-02-21T15:43:53.846Z,102388.27
2019-02-21T15:46:21.066Z,102386.53
2019-02-21T15:48:48.273Z,102388.27
2019-02-21T15:51:15.637Z,102385.64
2019-02-21T15:53:42.964Z,102385.64
2019-02-21T15:56:10.224Z,102390.05
2019-02-21T15:58:37.467Z,102392.24
2019-02-21T16:01:04.673Z,102378.64
2019-02-21T16:03:32.019Z,102386.95
2019-02-21T16:05:59.186Z,102382.59
2019-02-21T16:08:26.406Z,102388.70
2019-02-21T16:10:53.705Z,102386.49
2019-02-21T16:13:21.450Z,102398.36
2019-02-21T16:15:48.883Z,102393.95
2019-02-21T16:18:16.126Z,102399.21
2019-02-21T16:20:43.294Z,102397.47
2019-02-21T16:23:11.453Z,102399.67
2019-02-21T16:25:38.907Z,102407.55
2019-02-21T16:28:06.096Z,102403.19
2019-02-21T16:30:33.286Z,102400.98
2019-02-21T16:33:00.488Z,102403.19
2019-02-21T16:35:27.686Z,102407.55
2019-02-21T16:37:54.922Z,102407.13
2019-02-21T16:40:22.082Z,102420.27
2019-02-21T16:42:49.311Z,102425.09
2019-02-21T16:45:16.522Z,102441.71
2019-02-21T16:47:43.724Z,102428.58
2019-02-21T16:50:11.919Z,102432.95
2019-02-21T16:52:39.108Z,102432.95
2019-02-21T16:55:08.897Z,102425.09
2019-02-21T16:57:36.120Z,102427.26
2019-02-21T17:00:03.827Z,102443.91
2019-02-21T17:02:31.081Z,102441.28
2019-02-21T17:04:58.232Z,102444.80
2019-02-21T17:07:25.572Z,102447.00
2019-02-21T17:09:52.752Z,102451.37
2019-02-21T17:12:19.953Z,102455.74
2019-02-21T17:14:47.215Z,102462.73
2019-02-21T17:17:14.395Z,102468.45
2019-02-21T17:19:41.596Z,102468.02
2019-02-21T17:22:08.941Z,102467.99
2019-02-21T17:24:36.133Z,102471.08
2019-02-21T17:27:03.401Z,102475.02
2019-02-21T17:29:30.536Z,102469.30
2019-02-21T17:31:57.709Z,102475.02
2019-02-21T17:34:24.908Z,102475.88
2019-02-21T17:36:52.130Z,102484.65
2019-02-21T17:39:19.310Z,102480.70
2019-02-21T17:41:46.621Z,102481.59
2019-02-21T17:44:13.824Z,102484.23
2019-02-21T17:46:41.072Z,102486.39
2019-02-21T17:49:08.389Z,102491.66
2019-02-21T17:51:35.699Z,102493.39
2019-02-21T17:54:02.921Z,102491.65
2019-02-21T17:56:30.273Z,102495.59
2019-02-21T17:58:57.464Z,102503.48
2019-02-21T18:01:24.748Z,102504.80
2019-02-21T18:03:51.970Z,102503.91
2019-02-21T18:06:19.302Z,102507.00
2019-02-21T18:08:46.554Z,102507.00
2019-02-21T18:11:14.051Z,102509.59
2019-02-21T18:13:41.546Z,102510.05
2019-02-21T18:16:08.803Z,102509.16
2019-02-21T18:18:36.062Z,102507.86
2019-02-21T18:21:03.372Z,102512.68
2019-02-21T18:23:30.566Z,102524.08
2019-02-21T18:26:02.166Z,102521.87
2019-02-21T18:28:29.574Z,102524.93
2019-02-21T18:30:56.877Z,102529.77
2019-02-21T18:33:24.171Z,102527.56
2019-02-21T18:35:51.493Z,102520.14
2019-02-21T18:38:18.814Z,102524.50
2019-02-21T18:40:46.321Z,102530.65
2019-02-21T18:43:13.698Z,102535.44
2019-02-21T18:45:41.218Z,102534.58
2019-02-21T18:48:08.573Z,102531.95
2019-02-21T18:50:38.416Z,102535.89
2019-02-21T18:53:04.951Z,102535.89
2019-02-21T18:55:32.418Z,102539.84
2019-02-21T18:58:03.110Z,102532.84
2019-02-21T19:00:30.594Z,102538.53
2019-02-21T19:02:57.811Z,102542.02
2019-02-21T19:05:35.380Z,102541.59
2019-02-21T19:08:03.370Z,102551.66
2019-02-21T19:10:23.493Z,102556.05
2019-02-21T19:12:50.697Z,102552.11
2019-02-21T19:15:17.988Z,102569.63
2019-02-21T19:17:45.224Z,102571.83
2019-02-21T19:20:12.585Z,102574.45
2019-02-21T19:22:39.800Z,102579.27
2019-02-21T19:25:07.638Z,102590.22
2019-02-21T19:27:37.427Z,102591.09
2019-02-21T19:30:05.927Z,102598.95
2019-02-21T19:32:33.252Z,102604.66
2019-02-21T19:35:00.528Z,102604.66
2019-02-21T19:37:27.767Z,102605.97
2019-02-21T19:39:54.937Z,102602.02
2019-02-21T19:42:22.158Z,102605.53
2019-02-21T19:44:49.467Z,102613.87
2019-02-21T19:47:16.654Z,102617.80
2019-02-21T19:49:43.899Z,102610.81
2019-02-21T19:52:11.137Z,102604.67
2019-02-21T19:54:38.355Z,102609.05
2019-02-21T19:57:07.415Z,102611.68
2019-02-21T19:59:34.711Z,102616.94
2019-02-21T20:02:01.976Z,102627.44
2019-02-21T20:04:29.189Z,102630.06
2019-02-21T20:06:56.383Z,102634.03
2019-02-21T20:09:23.585Z,102641.47
2019-02-21T20:11:50.815Z,102650.23
2019-02-21T20:14:18.040Z,102654.63
2019-02-21T20:16:45.866Z,102665.98
2019-02-21T20:19:13.263Z,102668.19
2019-02-21T20:21:43.660Z,102671.25
2019-02-21T20:24:11.033Z,102678.69
2019-02-21T20:26:38.358Z,102679.14
2019-02-21T20:29:05.826Z,102678.69
2019-02-21T20:31:33.042Z,102686.16
2019-02-21T20:34:00.291Z,102686.58
2019-02-21T20:36:27.532Z,102685.71
2019-02-21T20:38:54.772Z,102688.78
2019-02-21T20:41:22.033Z,102688.79
2019-02-21T20:43:49.225Z,102697.11
2019-02-21T20:46:16.461Z,102697.97
2019-02-21T20:48:43.647Z,102701.05
2019-02-21T20:51:11.008Z,102701.48
2019-02-21T20:53:38.181Z,102700.60
2019-02-21T20:56:06.181Z,102696.67
2019-02-21T20:58:33.595Z,102707.63
2019-02-21T21:01:01.138Z,102707.63
2019-02-21T21:03:28.356Z,102712.44
2019-02-21T21:05:55.625Z,102703.66
2019-02-21T21:08:22.843Z,102707.63
2019-02-21T21:10:50.122Z,102717.70
2019-02-21T21:13:17.327Z,102715.92
2019-02-21T21:15:44.660Z,102717.70
2019-02-21T21:18:11.852Z,102715.94
2019-02-21T21:20:39.050Z,102722.52
2019-02-21T21:23:06.378Z,102727.75
2019-02-21T21:25:33.544Z,102739.14
2019-02-21T21:28:00.763Z,102742.23
2019-02-21T21:30:27.921Z,102744.84
2019-02-21T21:32:55.153Z,102741.34
2019-02-21T21:35:22.342Z,102740.91
2019-02-21T21:37:49.523Z,102742.67
2019-02-21T21:40:16.771Z,102749.69
2019-02-21T21:42:43.986Z,102752.31
2019-02-21T21:45:13.373Z,102750.98
2019-02-21T21:47:40.536Z,102755.83
2019-02-21T21:50:08.441Z,102764.14
2019-02-21T21:52:35.642Z,102773.78
2019-02-21T21:55:02.867Z,102773.34
2019-02-21T21:57:30.023Z,102771.17
2019-02-21T21:59:57.294Z,102777.73
2019-02-21T22:02:24.594Z,102778.59
2019-02-21T22:04:51.836Z,102789.11
2019-02-21T22:07:19.071Z,102789.11
2019-02-21T22:09:46.299Z,102795.27
2019-02-21T22:12:13.560Z,102800.50
2019-02-21T22:14:40.715Z,102801.38
2019-02-21T22:17:07.904Z,102808.84
2019-02-21T22:19:35.088Z,102811.89
2019-02-21T22:22:02.341Z,102806.20
2019-02-21T22:24:29.550Z,102808.84
2019-02-21T22:26:56.731Z,102809.27
2019-02-21T22:29:23.976Z,102817.15
2019-02-21T22:31:51.145Z,102821.11
2019-02-21T22:34:18.459Z,102812.77
2019-02-21T22:36:47.995Z,102813.63
2019-02-21T22:39:16.543Z,102808.81
2019-02-21T22:41:44.192Z,102811.89
2019-02-21T22:44:11.507Z,102817.17
2019-02-21T22:46:38.686Z,102818.91
2019-02-21T22:49:06.071Z,102815.38
2019-02-21T22:51:33.486Z,102812.75
2019-02-21T22:54:00.739Z,102816.70
2019-02-21T22:56:28.198Z,102818.91
2019-02-21T22:58:55.408Z,102819.33
2019-02-21T23:01:28.693Z,102829.84
2019-02-21T23:04:09.643Z,102828.97
2019-02-21T23:06:58.935Z,102833.35
2019-02-21T23:09:27.834Z,102835.55
2019-02-21T23:11:55.734Z,102827.66
2019-02-21T23:14:22.996Z,102832.92
2019-02-21T23:16:50.295Z,102850.02
2019-02-21T23:19:17.711Z,102856.15
2019-02-21T23:21:45.036Z,102860.98
2019-02-21T23:24:12.479Z,102867.55
2019-02-21T23:26:39.741Z,102874.54
2019-02-21T23:29:06.976Z,102882.89
2019-02-21T23:31:34.255Z,102887.27
2019-02-21T23:34:02.071Z,102891.64
2019-02-21T23:36:29.486Z,102888.16
2019-02-21T23:38:56.745Z,102893.41
2019-02-21T23:41:24.000Z,102894.71
2019-02-21T23:43:51.265Z,102905.23
2019-02-21T23:46:18.581Z,102908.70
2019-02-21T23:48:45.828Z,102917.92
2019-02-21T23:51:13.117Z,102919.23
2019-02-21T23:53:40.318Z,102922.29
2019-02-21T23:56:07.624Z,102925.34
2019-02-21T23:58:35.057Z,102935.41
